地図

経路データ

SID SEASON NUMBER BASIN SUBBASIN NAME ISO_TIME NATURE LAT LON WMO_WIND WMO_PRES WMO_AGENCY TRACK_TYPE DIST2LAND LANDFALL IFLAG USA_AGENCY USA_ATCF_ID USA_LAT USA_LON USA_RECORD USA_STATUS USA_WIND USA_PRES USA_SSHS USA_R34_NE USA_R34_SE USA_R34_SW USA_R34_NW USA_R50_NE USA_R50_SE USA_R50_SW USA_R50_NW USA_R64_NE USA_R64_SE USA_R64_SW USA_R64_NW USA_POCI USA_ROCI USA_RMW USA_EYE TOKYO_LAT TOKYO_LON TOKYO_GRADE TOKYO_WIND TOKYO_PRES TOKYO_R50_DIR TOKYO_R50_LONG TOKYO_R50_SHORT TOKYO_R30_DIR TOKYO_R30_LONG TOKYO_R30_SHORT TOKYO_LAND CMA_LAT CMA_LON CMA_CAT CMA_WIND CMA_PRES HKO_LAT HKO_LON HKO_CAT HKO_WIND HKO_PRES NEWDELHI_LAT NEWDELHI_LON NEWDELHI_GRADE NEWDELHI_WIND NEWDELHI_PRES NEWDELHI_CI NEWDELHI_DP NEWDELHI_POCI REUNION_LAT REUNION_LON REUNION_TYPE REUNION_WIND REUNION_PRES REUNION_TNUM REUNION_CI REUNION_RMW REUNION_R34_NE REUNION_R34_SE REUNION_R34_SW REUNION_R34_NW REUNION_R50_NE REUNION_R50_SE REUNION_R50_SW REUNION_R50_NW REUNION_R64_NE REUNION_R64_SE REUNION_R64_SW REUNION_R64_NW BOM_LAT BOM_LON BOM_TYPE BOM_WIND BOM_PRES BOM_TNUM BOM_CI BOM_RMW BOM_R34_NE BOM_R34_SE BOM_R34_SW BOM_R34_NW BOM_R50_NE BOM_R50_SE BOM_R50_SW BOM_R50_NW BOM_R64_NE BOM_R64_SE BOM_R64_SW BOM_R64_NW BOM_ROCI BOM_POCI BOM_EYE BOM_POS_METHOD BOM_PRES_METHOD NADI_LAT NADI_LON NADI_CAT NADI_WIND NADI_PRES WELLINGTON_LAT WELLINGTON_LON WELLINGTON_WIND WELLINGTON_PRES DS824_LAT DS824_LON DS824_STAGE DS824_WIND DS824_PRES TD9636_LAT TD9636_LON TD9636_STAGE TD9636_WIND TD9636_PRES TD9635_LAT TD9635_LON TD9635_WIND TD9635_PRES TD9635_ROCI NEUMANN_LAT NEUMANN_LON NEUMANN_CLASS NEUMANN_WIND NEUMANN_PRES MLC_LAT MLC_LON MLC_CLASS MLC_WIND MLC_PRES USA_GUST BOM_GUST BOM_GUST_PER REUNION_GUST REUNION_GUST_PER USA_SEAHGT USA_SEARAD_NE USA_SEARAD_SE USA_SEARAD_SW USA_SEARAD_NW STORM_SPEED STORM_DIR
1859277N22287 1859 23 NA NA NOT_NAMED 1859-10-03 21:00:00 TS 22.0499 -72.6498 spur-other 98 98 ______________ -1 10 43
1859277N22287 1859 23 NA NA NOT_NAMED 1859-10-04 00:00:00 NR 22.4000 -72.3000 spur-other 152 152 _____________O -1 22.4000 -72.3000 MH 100 10 43
1859277N22287 1859 23 NA NA NOT_NAMED 1859-10-04 03:00:00 NR 22.7500 -71.9424 spur-other 202 202 _____________P -1 22.7726 -71.9480 MH 100 10 43
1859277N22287 1859 23 NA NA NOT_NAMED 1859-10-04 06:00:00 NR 23.1000 -71.6000 spur-other 256 256 _____________O -1 23.1000 -71.6000 MH 100 9 44
1859277N22287 1859 23 NA NA NOT_NAMED 1859-10-04 09:00:00 NR 23.3825 -71.2697 spur-other 301 301 _____________P -1 23.3825 -71.2697 MH 102 9 38
1859277N22287 1859 23 NA NA NOT_NAMED 1859-10-04 12:00:00 NR 23.8000 -71.0000 spur-other 355 355 _____________O -1 23.8000 -71.0000 MH 105 12 20
1859277N22287 1859 23 NA NA NOT_NAMED 1859-10-04 15:00:00 NR 24.5399 -70.8200 spur-other 432 432 _____________P -1 24.5399 -70.8200 MH 105 16 10
1859277N22287 1859 23 NA NA NOT_NAMED 1859-10-04 18:00:00 NR 25.4000 -70.7000 spur-other 524 524 _____________O -1 25.4000 -70.7000 MH 105 16 7
1859277N22287 1859 23 NA NA NOT_NAMED 1859-10-04 21:00:00 NR 26.1499 -70.5995 spur-other 599 599 _____________P -1 26.1499 -70.5995 MH 105 15 7
1859277N22287 1859 23 NA NA NOT_NAMED 1859-10-05 00:00:00 NR 26.9000 -70.5000 spur-other 685 685 _____________O -1 26.9000 -70.5000 MH 105 16 8
1859277N22287 1859 23 NA NA NOT_NAMED 1859-10-05 03:00:00 NR 27.7000 -70.3502 spur-other 772 772 _____________P -1 27.7000 -70.3502 MH 105 16 9
1859277N22287 1859 23 NA NA NOT_NAMED 1859-10-05 06:00:00 NR 28.5000 -70.2000 spur-other 861 861 _____________O -1 28.5000 -70.2000 MH 105 15 5
1859277N22287 1859 23 NA NA NOT_NAMED 1859-10-05 09:00:00 NR 29.1515 -70.2144 spur-other 853 804 _____________P -1 29.1515 -70.2144 MH 107 15 6
1859277N22287 1859 23 NA NA NOT_NAMED 1859-10-05 12:00:00 NR 30.0000 -70.0000 spur-other 803 768 _____________O -1 30.0000 -70.0000 MH 110 24 22
1859277N22287 1859 23 NA NA NOT_NAMED 1859-10-05 15:00:00 NR 31.3465 -69.1810 spur-other 768 746 _____________P -1 31.3465 -69.1810 MH 110 33 29
1859277N22287 1859 23 NA NA NOT_NAMED 1859-10-05 18:00:00 NR 32.9000 -68.1000 spur-other 750 748 _____________O -1 32.9000 -68.1000 MH 110 36 28
1859277N22287 1859 23 NA NA NOT_NAMED 1859-10-05 21:00:00 NR 34.4827 -67.2026 spur-other 766 740 _____________P -1 34.4827 -67.2026 MH 110 33 28
1859277N22287 1859 23 NA NA NOT_NAMED 1859-10-06 00:00:00 NR 35.8000 -66.2000 spur-other 734 715 _____________O -1 35.8000 -66.2000 MH 110 27 42
1859277N22287 1859 23 NA NA NOT_NAMED 1859-10-06 03:00:00 NR 36.4849 -64.9466 spur-other 726 726 _____________P -1 36.4849 -64.9466 MH 110 24 62
1859277N22287 1859 23 NA NA NOT_NAMED 1859-10-06 06:00:00 NR 36.9000 -63.6000 spur-other 748 710 _____________O -1 36.9000 -63.6000 MH 110 24 64
1859277N22287 1859 23 NA NA NOT_NAMED 1859-10-06 09:00:00 NR 37.5467 -62.2809 spur-other 713 699 _____________P -1 37.5467 -62.2809 MH 110 23 62
1859277N22287 1859 23 NA NA NOT_NAMED 1859-10-06 12:00:00 NR 38.0000 -61.0000 spur-other 710 710 _____________O -1 38.0000 -61.0000 MH 110 938 20 77
1859277N22287 1859 23 NA NA NOT_NAMED 1859-10-06 15:00:00 NR 37.9881 -59.8227 spur-other 766 766 _____________P -1 37.9881 -59.8227 MH 110 18 96
1859277N22287 1859 23 NA NA NOT_NAMED 1859-10-06 18:00:00 NR 37.8000 -58.7000 spur-other 839 839 _____________O -1 37.8000 -58.7000 MH 110 18 98
1859277N22287 1859 23 NA NA NOT_NAMED 1859-10-06 21:00:00 NR 37.7489 -57.5508 spur-other 883 883 _____________P -1 37.7489 -57.5508 MH 107 18 93
1859277N22287 1859 23 NA NA NOT_NAMED 1859-10-07 00:00:00 NR 37.7000 -56.4000 spur-other 920 920 _____________O -1 37.7000 -56.4000 MH 105 18 94
1859277N22287 1859 23 NA NA NOT_NAMED 1859-10-07 03:00:00 NR 37.6064 -55.2500 spur-other 976 976 _____________P -1 37.6064 -55.2500 MH 102 18 96
1859277N22287 1859 23 NA NA NOT_NAMED 1859-10-07 06:00:00 NR 37.5000 -54.1000 spur-other 1012 1012 _____________O -1 37.5000 -54.1000 MH 100 19 96
1859277N22287 1859 23 NA NA NOT_NAMED 1859-10-07 09:00:00 NR 37.3999 -52.9127 spur-other 1023 1023 _____________P -1 37.3999 -52.9127 MH 97 18 96
1859277N22287 1859 23 NA NA NOT_NAMED 1859-10-07 12:00:00 TS 37.3000 -51.8000 spur-other 1040 1040 _____________O -1 37.3000 -51.8000 HU 95 16 97
1859277N22287 1859 23 NA NA NOT_NAMED 1859-10-07 15:00:00 TS 37.1909 -50.8627 spur-other 1062 1062 _____________P -1 37.1909 -50.8627 HU 95 14 98
1859277N22287 1859 23 NA NA NOT_NAMED 1859-10-07 18:00:00 TS 37.1000 -50.0000 spur-other 1088 1088 _____________O -1 37.1000 -50.0000 HU 95 14 96
1859277N22287 1859 23 NA NA NOT_NAMED 1859-10-07 21:00:00 TS 37.0418 -49.1004 spur-other 1119 1119 _____________P -1 37.0418 -49.1004 HU 92 14 94
1859277N22287 1859 23 NA NA NOT_NAMED 1859-10-08 00:00:00 TS 37.0000 -48.2000 spur-other 1144 1144 _____________O -1 37.0000 -48.2000 HU 90 14 94
1859277N22287 1859 23 NA NA NOT_NAMED 1859-10-08 03:00:00 TS 36.9492 -47.3076 spur-other 1183 1183 _____________P -1 36.9492 -47.3076 HU 90 14 94
1859277N22287 1859 23 NA NA NOT_NAMED 1859-10-08 06:00:00 TS 36.9000 -46.4000 spur-other 1215 1215 _____________O -1 36.9000 -46.4000 HU 90 15 95
1859277N22287 1859 23 NA NA NOT_NAMED 1859-10-08 09:00:00 TS 36.8202 -45.4192 spur-other 1265 1265 _____________P -1 36.8202 -45.4192 HU 90 15 94
1859277N22287 1859 23 NA NA NOT_NAMED 1859-10-08 12:00:00 TS 36.8000 -44.5000 spur-other 1304 1304 _____________O -1 36.8000 -44.5000 HU 90 13 86
1859277N22287 1859 23 NA NA NOT_NAMED 1859-10-08 15:00:00 TS 36.9189 -43.7631 spur-other 1327 1327 _____________P -1 36.9189 -43.7631 HU 90 12 75
1859277N22287 1859 23 NA NA NOT_NAMED 1859-10-08 18:00:00 TS 37.1000 -43.1000 spur-other 1343 1343 _____________O -1 37.1000 -43.1000 HU 90 11 73
1859277N22287 1859 23 NA NA NOT_NAMED 1859-10-08 21:00:00 TS 37.2496 -42.3997 spur-other 1370 1362 _____________P -1 37.2496 -42.3997 HU 90 12 75
1859277N22287 1859 23 NA NA NOT_NAMED 1859-10-09 00:00:00 TS 37.4000 -41.7000 spur-other 1391 1391 _____________O -1 37.4000 -41.7000 HU 90 12 75
1859277N22287 1859 23 NA NA NOT_NAMED 1859-10-09 03:00:00 TS 37.5497 -40.9923 spur-other 1422 1413 _____________P -1 37.5497 -40.9923 HU 87 11 75
1859277N22287 1859 23 NA NA NOT_NAMED 1859-10-09 06:00:00 TS 37.7000 -40.3000 spur-other 1446 1446 _____________O -1 37.7000 -40.3000 HU 85 11 75
1859277N22287 1859 23 NA NA NOT_NAMED 1859-10-09 09:00:00 TS 37.8349 -39.6195 spur-other 1480 1479 _____________P -1 37.8349 -39.6195 HU 85 11 74
1859277N22287 1859 23 NA NA NOT_NAMED 1859-10-09 12:00:00 TS 38.0000 -39.0000 spur-other 1502 1502 _____________O -1 38.0000 -39.0000 HU 85 10 66
1859277N22287 1859 23 NA NA NOT_NAMED 1859-10-09 15:00:00 TS 38.2420 -38.4775 spur-other 1518 1510 _____________P -1 38.2420 -38.4775 HU 85 9 58
1859277N22287 1859 23 NA NA NOT_NAMED 1859-10-09 18:00:00 TS 38.5000 -38.0000 spur-other 1527 1526 _____________O -1 38.5000 -38.0000 HU 85 9 59
1859277N22287 1859 23 NA NA NOT_NAMED 1859-10-09 21:00:00 TS 38.6998 -37.4994 spur-other 1545 1544 _____________P -1 38.6998 -37.4994 HU 85 9 63
1859277N22287 1859 23 NA NA NOT_NAMED 1859-10-10 00:00:00 TS 38.9000 -37.0000 spur-other 1564 1563 _____________O -1 38.9000 -37.0000 HU 85 9 60
1859277N22287 1859 23 NA NA NOT_NAMED 1859-10-10 03:00:00 TS 39.1498 -36.5000 spur-other 1583 1576 _____________P -1 39.1498 -36.5000 HU 85 9 57
1859277N22287 1859 23 NA NA NOT_NAMED 1859-10-10 06:00:00 TS 39.4000 -36.0000 spur-other 1597 1597 _____________O -1 39.4000 -36.0000 HU 85 9 62
1859277N22287 1859 23 NA NA NOT_NAMED 1859-10-10 09:00:00 TS 39.5625 -35.4765 spur-other 1619 1619 _____________P -1 39.5625 -35.4765 HU 85 9 63
1859277N22287 1859 23 NA NA NOT_NAMED 1859-10-10 12:00:00 TS 39.8000 -35.0000 spur-other 1641 1637 _____________O -1 39.8000 -35.0000 HU 85 10 43
1859277N22287 1859 23 NA NA NOT_NAMED 1859-10-10 15:00:00 TS 40.2622 -34.6202 spur-other 1639 1627 _____________P -1 40.2622 -34.6202 HU 85 11 28
1859277N22287 1859 23 NA NA NOT_NAMED 1859-10-10 18:00:00 TS 40.8000 -34.3000 spur-other 1628 1618 _____________O -1 40.8000 -34.3000 HU 85 11 26
1859277N22287 1859 23 NA NA NOT_NAMED 1859-10-10 21:00:00 TS 41.2574 -33.9918 spur-other 1619 1615 _____________P -1 41.2574 -33.9918 HU 82 10 27
1859277N22287 1859 23 NA NA NOT_NAMED 1859-10-11 00:00:00 TS 41.7000 -33.7000 spur-other 1618 1613 _____________O -1 41.7000 -33.7000 HU 80 10 26
1859277N22287 1859 23 NA NA NOT_NAMED 1859-10-11 03:00:00 TS 42.1499 -33.3996 spur-other 1618 1610 _____________P -1 42.1499 -33.3996 HU 80 10 26
1859277N22287 1859 23 NA NA NOT_NAMED 1859-10-11 06:00:00 TS 42.6000 -33.1000 spur-other 1614 1612 _____________O -1 42.6000 -33.1000 HU 80 10 27
1859277N22287 1859 23 NA NA NOT_NAMED 1859-10-11 09:00:00 TS 43.0200 -32.7918 spur-other 1617 1612 _____________P -1 43.0200 -32.7918 HU 80 10 26
1859277N22287 1859 23 NA NA NOT_NAMED 1859-10-11 12:00:00 TS 43.5000 -32.5000 spur-other 1617 1607 _____________O -1 43.5000 -32.5000 HU 80 12 20
1859277N22287 1859 23 NA NA NOT_NAMED 1859-10-11 15:00:00 TS 44.1274 -32.2495 spur-other 1614 1599 _____________P -1 44.1274 -32.2495 HU 77 13 15
1859277N22287 1859 23 NA NA NOT_NAMED 1859-10-11 18:00:00 TS 44.8000 -32.0000 spur-other 1603 1600 _____________O -1 44.8000 -32.0000 HU 75 13 17
1859277N22287 1859 23 NA NA NOT_NAMED 1859-10-11 21:00:00 TS 45.4000 -31.6996 spur-other 1606 1603 _____________P -1 45.4000 -31.6996 HU 75 13 19
1859277N22287 1859 23 NA NA NOT_NAMED 1859-10-12 00:00:00 TS 46.0000 -31.4000 spur-other 1611 1604 _____________O -1 46.0000 -31.4000 HU 75 13 17
1859277N22287 1859 23 NA NA NOT_NAMED 1859-10-12 03:00:00 TS 46.6498 -31.1491 spur-other 1597 1547 _____________P -1 46.6498 -31.1491 HU 75 13 15
1859277N22287 1859 23 NA NA NOT_NAMED 1859-10-12 06:00:00 TS 47.3000 -30.9000 spur-other 1547 1498 _____________O -1 47.3000 -30.9000 HU 75 975 13 16
1859277N22287 1859 23 NA NA NOT_NAMED 1859-10-12 09:00:00 TS 47.9127 -30.6141 spur-other 1498 1450 _____________P -1 47.9127 -30.6141 HU 72 13 19
1859277N22287 1859 23 NA NA NOT_NAMED 1859-10-12 12:00:00 ET 48.5000 -30.3000 spur-other 1450 _____________O -1 48.5000 -30.3000 EX 70 12 20

IBTrACS Databaseについて

本データベースは、米国NOAAが公開する1842年以降の世界の熱帯低気圧のベストトラックデータアーカイブInternational Best Track Archive for Climate Stewardship (IBTrACS)を、ウェブで閲覧しやすい形式に変換したものです。

最終更新日:2021-12-01